sensor_id;sensor_type;location;lat;lon;timestamp;temperature;humidity
41838;DHT22;27511;52.042;5.178;2023-05-02T00:01:54;13.10;99.90
41838;DHT22;27511;52.042;5.178;2023-05-02T00:04:19;13.20;99.90
41838;DHT22;27511;52.042;5.178;2023-05-02T00:06:45;13.40;99.90
41838;DHT22;27511;52.042;5.178;2023-05-02T00:09:11;13.40;99.90
41838;DHT22;27511;52.042;5.178;2023-05-02T00:11:36;13.30;99.90
41838;DHT22;27511;52.042;5.178;2023-05-02T00:14:02;13.20;99.90
41838;DHT22;27511;52.042;5.178;2023-05-02T00:16:27;13.20;99.90
41838;DHT22;27511;52.042;5.178;2023-05-02T00:18:53;13.20;99.90
41838;DHT22;27511;52.042;5.178;2023-05-02T00:21:18;13.20;99.90
41838;DHT22;27511;52.042;5.178;2023-05-02T00:23:44;13.40;99.90
41838;DHT22;27511;52.042;5.178;2023-05-02T00:26:09;13.30;99.90
41838;DHT22;27511;52.042;5.178;2023-05-02T00:28:35;13.40;99.90
41838;DHT22;27511;52.042;5.178;2023-05-02T00:31:00;13.40;99.90
41838;DHT22;27511;52.042;5.178;2023-05-02T00:33:26;13.50;99.90
41838;DHT22;27511;52.042;5.178;2023-05-02T00:35:51;13.60;99.90
41838;DHT22;27511;52.042;5.178;2023-05-02T00:38:17;13.80;99.90
41838;DHT22;27511;52.042;5.178;2023-05-02T00:40:46;13.80;99.90
41838;DHT22;27511;52.042;5.178;2023-05-02T00:43:12;13.90;99.90
41838;DHT22;27511;52.042;5.178;2023-05-02T00:45:38;13.80;99.90
41838;DHT22;27511;52.042;5.178;2023-05-02T00:48:07;13.90;99.90
41838;DHT22;27511;52.042;5.178;2023-05-02T00:50:37;13.90;99.90
41838;DHT22;27511;52.042;5.178;2023-05-02T00:53:05;13.90;99.90
41838;DHT22;27511;52.042;5.178;2023-05-02T00:55:31;13.90;99.90
41838;DHT22;27511;52.042;5.178;2023-05-02T00:57:58;14.10;99.90
41838;DHT22;27511;52.042;5.178;2023-05-02T01:00:26;14.00;99.90
41838;DHT22;27511;52.042;5.178;2023-05-02T01:02:57;14.10;99.90
41838;DHT22;27511;52.042;5.178;2023-05-02T01:05:28;14.10;99.90
41838;DHT22;27511;52.042;5.178;2023-05-02T01:10:51;14.20;99.90
41838;DHT22;27511;52.042;5.178;2023-05-02T01:13:21;14.30;99.90
41838;DHT22;27511;52.042;5.178;2023-05-02T01:15:47;14.40;99.90
41838;DHT22;27511;52.042;5.178;2023-05-02T01:18:13;14.40;99.90
41838;DHT22;27511;52.042;5.178;2023-05-02T01:20:42;14.20;99.90
41838;DHT22;27511;52.042;5.178;2023-05-02T01:23:10;14.30;99.90
41838;DHT22;27511;52.042;5.178;2023-05-02T01:30:50;14.30;99.90
41838;DHT22;27511;52.042;5.178;2023-05-02T01:33:18;14.30;99.90
41838;DHT22;27511;52.042;5.178;2023-05-02T01:35:45;14.30;99.90
41838;DHT22;27511;52.042;5.178;2023-05-02T01:38:14;14.10;99.90
41838;DHT22;27511;52.042;5.178;2023-05-02T01:40:42;13.90;99.90
41838;DHT22;27511;52.042;5.178;2023-05-02T01:43:09;13.80;99.90
41838;DHT22;27511;52.042;5.178;2023-05-02T01:45:35;13.70;99.90
41838;DHT22;27511;52.042;5.178;2023-05-02T01:48:02;13.60;99.90
41838;DHT22;27511;52.042;5.178;2023-05-02T01:50:29;13.60;99.90
41838;DHT22;27511;52.042;5.178;2023-05-02T01:52:55;13.50;99.90
41838;DHT22;27511;52.042;5.178;2023-05-02T01:55:22;13.50;99.90
41838;DHT22;27511;52.042;5.178;2023-05-02T01:57:48;13.50;99.90
41838;DHT22;27511;52.042;5.178;2023-05-02T02:00:18;13.40;99.90
41838;DHT22;27511;52.042;5.178;2023-05-02T02:02:44;13.50;99.90
41838;DHT22;27511;52.042;5.178;2023-05-02T02:05:10;13.50;99.90
41838;DHT22;27511;52.042;5.178;2023-05-02T02:07:37;13.70;99.90
41838;DHT22;27511;52.042;5.178;2023-05-02T02:10:02;13.70;99.90
41838;DHT22;27511;52.042;5.178;2023-05-02T02:12:34;13.80;99.90
41838;DHT22;27511;52.042;5.178;2023-05-02T02:15:02;13.80;99.90
41838;DHT22;27511;52.042;5.178;2023-05-02T02:17:35;13.90;99.90
41838;DHT22;27511;52.042;5.178;2023-05-02T02:20:02;14.00;99.90
41838;DHT22;27511;52.042;5.178;2023-05-02T02:22:29;14.10;99.90
41838;DHT22;27511;52.042;5.178;2023-05-02T02:24:58;14.00;99.90
41838;DHT22;27511;52.042;5.178;2023-05-02T02:27:24;13.70;99.90
41838;DHT22;27511;52.042;5.178;2023-05-02T02:29:49;13.80;99.90
41838;DHT22;27511;52.042;5.178;2023-05-02T02:32:15;13.70;99.90
41838;DHT22;27511;52.042;5.178;2023-05-02T02:34:40;13.60;99.90
41838;DHT22;27511;52.042;5.178;2023-05-02T02:37:07;13.40;99.90
41838;DHT22;27511;52.042;5.178;2023-05-02T02:44:55;13.30;99.90
41838;DHT22;27511;52.042;5.178;2023-05-02T02:47:26;13.30;99.90
41838;DHT22;27511;52.042;5.178;2023-05-02T02:55:16;13.00;99.90
41838;DHT22;27511;52.042;5.178;2023-05-02T02:57:51;13.00;99.90
41838;DHT22;27511;52.042;5.178;2023-05-02T03:00:20;13.10;99.90
41838;DHT22;27511;52.042;5.178;2023-05-02T03:02:46;13.20;99.90
41838;DHT22;27511;52.042;5.178;2023-05-02T03:05:12;13.10;99.90
41838;DHT22;27511;52.042;5.178;2023-05-02T03:07:38;13.30;99.90
41838;DHT22;27511;52.042;5.178;2023-05-02T03:10:04;13.30;99.90
41838;DHT22;27511;52.042;5.178;2023-05-02T03:12:30;13.30;99.90
41838;DHT22;27511;52.042;5.178;2023-05-02T03:17:30;13.20;99.90
41838;DHT22;27511;52.042;5.178;2023-05-02T03:19:55;13.10;99.90
41838;DHT22;27511;52.042;5.178;2023-05-02T03:22:21;13.20;99.90
41838;DHT22;27511;52.042;5.178;2023-05-02T03:24:47;13.30;99.90
41838;DHT22;27511;52.042;5.178;2023-05-02T03:27:12;13.40;99.90
41838;DHT22;27511;52.042;5.178;2023-05-02T03:29:38;13.40;99.90
41838;DHT22;27511;52.042;5.178;2023-05-02T03:32:03;13.20;99.90
41838;DHT22;27511;52.042;5.178;2023-05-02T03:34:28;13.20;99.90
41838;DHT22;27511;52.042;5.178;2023-05-02T03:36:54;13.20;99.90
41838;DHT22;27511;52.042;5.178;2023-05-02T03:39:19;13.20;99.90
41838;DHT22;27511;52.042;5.178;2023-05-02T03:41:45;13.10;99.90
41838;DHT22;27511;52.042;5.178;2023-05-02T03:44:10;13.00;99.90
41838;DHT22;27511;52.042;5.178;2023-05-02T03:46:36;13.00;99.90
41838;DHT22;27511;52.042;5.178;2023-05-02T03:49:01;13.00;99.90
41838;DHT22;27511;52.042;5.178;2023-05-02T03:51:27;13.00;99.90
41838;DHT22;27511;52.042;5.178;2023-05-02T03:53:52;12.90;99.90
41838;DHT22;27511;52.042;5.178;2023-05-02T03:56:19;12.90;99.90
41838;DHT22;27511;52.042;5.178;2023-05-02T03:58:45;13.10;99.90
41838;DHT22;27511;52.042;5.178;2023-05-02T04:01:14;13.10;99.90
41838;DHT22;27511;52.042;5.178;2023-05-02T04:03:40;13.00;99.90
41838;DHT22;27511;52.042;5.178;2023-05-02T04:06:05;13.00;99.90
41838;DHT22;27511;52.042;5.178;2023-05-02T04:08:31;13.10;99.90
41838;DHT22;27511;52.042;5.178;2023-05-02T04:10:57;13.10;99.90
41838;DHT22;27511;52.042;5.178;2023-05-02T04:13:22;13.10;99.90
41838;DHT22;27511;52.042;5.178;2023-05-02T04:15:48;13.10;99.90
41838;DHT22;27511;52.042;5.178;2023-05-02T04:18:13;13.00;99.90
41838;DHT22;27511;52.042;5.178;2023-05-02T04:20:41;12.90;99.90
41838;DHT22;27511;52.042;5.178;2023-05-02T04:23:07;12.90;99.90
41838;DHT22;27511;52.042;5.178;2023-05-02T04:25:32;12.80;99.90
41838;DHT22;27511;52.042;5.178;2023-05-02T04:27:57;12.70;99.90
41838;DHT22;27511;52.042;5.178;2023-05-02T04:30:23;12.70;99.90
41838;DHT22;27511;52.042;5.178;2023-05-02T04:32:48;12.70;99.90
41838;DHT22;27511;52.042;5.178;2023-05-02T04:35:15;12.70;99.90
41838;DHT22;27511;52.042;5.178;2023-05-02T04:37:41;12.80;99.90
41838;DHT22;27511;52.042;5.178;2023-05-02T04:40:07;12.80;99.90
41838;DHT22;27511;52.042;5.178;2023-05-02T04:42:33;12.80;99.90
41838;DHT22;27511;52.042;5.178;2023-05-02T04:44:58;12.80;99.90
41838;DHT22;27511;52.042;5.178;2023-05-02T04:47:24;12.80;99.90
41838;DHT22;27511;52.042;5.178;2023-05-02T04:49:49;12.70;99.90
41838;DHT22;27511;52.042;5.178;2023-05-02T04:52:15;12.70;99.90
41838;DHT22;27511;52.042;5.178;2023-05-02T04:54:40;12.70;99.90
41838;DHT22;27511;52.042;5.178;2023-05-02T04:57:06;12.60;99.90
41838;DHT22;27511;52.042;5.178;2023-05-02T04:59:34;12.50;99.90
41838;DHT22;27511;52.042;5.178;2023-05-02T05:01:59;12.40;99.90
41838;DHT22;27511;52.042;5.178;2023-05-02T05:04:25;12.40;99.90
41838;DHT22;27511;52.042;5.178;2023-05-02T05:06:50;12.40;99.90
41838;DHT22;27511;52.042;5.178;2023-05-02T05:09:16;12.40;99.90
41838;DHT22;27511;52.042;5.178;2023-05-02T05:11:41;12.60;99.90
41838;DHT22;27511;52.042;5.178;2023-05-02T05:14:08;12.60;99.90
41838;DHT22;27511;52.042;5.178;2023-05-02T05:16:33;12.70;99.90
41838;DHT22;27511;52.042;5.178;2023-05-02T05:18:59;12.80;99.90
41838;DHT22;27511;52.042;5.178;2023-05-02T05:21:24;12.70;99.90
41838;DHT22;27511;52.042;5.178;2023-05-02T05:23:51;12.70;99.90
41838;DHT22;27511;52.042;5.178;2023-05-02T05:26:17;12.70;99.90
41838;DHT22;27511;52.042;5.178;2023-05-02T05:28:42;12.60;99.90
41838;DHT22;27511;52.042;5.178;2023-05-02T05:31:09;12.70;99.90
41838;DHT22;27511;52.042;5.178;2023-05-02T05:33:35;12.80;99.90
41838;DHT22;27511;52.042;5.178;2023-05-02T05:36:05;12.80;99.90
41838;DHT22;27511;52.042;5.178;2023-05-02T05:38:30;12.70;99.90
41838;DHT22;27511;52.042;5.178;2023-05-02T05:40:56;12.70;99.90
41838;DHT22;27511;52.042;5.178;2023-05-02T05:43:21;12.70;99.90
41838;DHT22;27511;52.042;5.178;2023-05-02T05:45:47;12.80;99.90
41838;DHT22;27511;52.042;5.178;2023-05-02T05:48:12;12.90;99.90
41838;DHT22;27511;52.042;5.178;2023-05-02T05:50:38;12.90;99.90
41838;DHT22;27511;52.042;5.178;2023-05-02T05:53:03;13.00;99.90
41838;DHT22;27511;52.042;5.178;2023-05-02T05:55:29;13.10;99.90
41838;DHT22;27511;52.042;5.178;2023-05-02T05:57:54;13.10;99.90
41838;DHT22;27511;52.042;5.178;2023-05-02T06:00:19;13.20;99.90
41838;DHT22;27511;52.042;5.178;2023-05-02T06:02:45;13.00;99.90
41838;DHT22;27511;52.042;5.178;2023-05-02T06:05:11;13.10;99.90
41838;DHT22;27511;52.042;5.178;2023-05-02T06:07:36;12.90;99.90
41838;DHT22;27511;52.042;5.178;2023-05-02T06:10:01;12.80;99.90
41838;DHT22;27511;52.042;5.178;2023-05-02T06:12:27;12.90;99.90
41838;DHT22;27511;52.042;5.178;2023-05-02T06:14:52;13.10;99.90
41838;DHT22;27511;52.042;5.178;2023-05-02T06:17:18;13.10;99.90
41838;DHT22;27511;52.042;5.178;2023-05-02T06:19:43;13.20;99.90
41838;DHT22;27511;52.042;5.178;2023-05-02T06:22:10;13.30;99.90
41838;DHT22;27511;52.042;5.178;2023-05-02T06:24:36;13.40;99.90
41838;DHT22;27511;52.042;5.178;2023-05-02T06:27:02;13.50;99.90
41838;DHT22;27511;52.042;5.178;2023-05-02T06:29:27;13.60;99.90
41838;DHT22;27511;52.042;5.178;2023-05-02T06:31:56;13.60;99.90
41838;DHT22;27511;52.042;5.178;2023-05-02T06:34:21;13.60;99.90
41838;DHT22;27511;52.042;5.178;2023-05-02T06:36:47;13.70;99.90
41838;DHT22;27511;52.042;5.178;2023-05-02T06:39:12;13.70;99.90
41838;DHT22;27511;52.042;5.178;2023-05-02T06:41:38;13.80;99.90
41838;DHT22;27511;52.042;5.178;2023-05-02T06:44:03;13.80;99.90
41838;DHT22;27511;52.042;5.178;2023-05-02T06:46:29;13.70;99.90
41838;DHT22;27511;52.042;5.178;2023-05-02T06:48:55;13.60;99.90
41838;DHT22;27511;52.042;5.178;2023-05-02T06:51:21;13.70;99.90
41838;DHT22;27511;52.042;5.178;2023-05-02T06:53:46;13.90;99.90
41838;DHT22;27511;52.042;5.178;2023-05-02T06:56:12;14.00;99.90
41838;DHT22;27511;52.042;5.178;2023-05-02T06:58:37;13.80;99.90
41838;DHT22;27511;52.042;5.178;2023-05-02T07:01:03;13.80;99.90
41838;DHT22;27511;52.042;5.178;2023-05-02T07:03:28;13.90;99.90
41838;DHT22;27511;52.042;5.178;2023-05-02T07:05:54;13.90;99.90
41838;DHT22;27511;52.042;5.178;2023-05-02T07:08:19;13.90;99.90
41838;DHT22;27511;52.042;5.178;2023-05-02T07:10:46;13.90;99.90
41838;DHT22;27511;52.042;5.178;2023-05-02T07:13:12;13.80;99.90
41838;DHT22;27511;52.042;5.178;2023-05-02T07:15:37;13.50;99.90
41838;DHT22;27511;52.042;5.178;2023-05-02T07:18:03;13.50;99.90
41838;DHT22;27511;52.042;5.178;2023-05-02T07:20:28;13.50;99.90
41838;DHT22;27511;52.042;5.178;2023-05-02T07:22:54;13.60;99.90
41838;DHT22;27511;52.042;5.178;2023-05-02T07:25:19;13.60;99.90
41838;DHT22;27511;52.042;5.178;2023-05-02T07:27:45;13.60;99.90
41838;DHT22;27511;52.042;5.178;2023-05-02T07:30:11;13.80;99.90
41838;DHT22;27511;52.042;5.178;2023-05-02T07:32:36;13.80;99.90
41838;DHT22;27511;52.042;5.178;2023-05-02T07:35:02;14.00;99.90
41838;DHT22;27511;52.042;5.178;2023-05-02T07:37:30;14.00;99.90
41838;DHT22;27511;52.042;5.178;2023-05-02T07:39:56;14.00;99.90
41838;DHT22;27511;52.042;5.178;2023-05-02T07:42:21;14.00;99.90
41838;DHT22;27511;52.042;5.178;2023-05-02T07:44:47;14.00;99.90
41838;DHT22;27511;52.042;5.178;2023-05-02T07:47:12;13.90;99.90
41838;DHT22;27511;52.042;5.178;2023-05-02T07:49:38;13.90;99.90
41838;DHT22;27511;52.042;5.178;2023-05-02T07:52:03;14.00;99.90
41838;DHT22;27511;52.042;5.178;2023-05-02T07:54:29;13.80;99.90
41838;DHT22;27511;52.042;5.178;2023-05-02T07:56:54;13.60;99.90
41838;DHT22;27511;52.042;5.178;2023-05-02T07:59:22;13.60;99.90
41838;DHT22;27511;52.042;5.178;2023-05-02T08:01:47;13.40;99.90
41838;DHT22;27511;52.042;5.178;2023-05-02T08:04:13;13.40;99.90
41838;DHT22;27511;52.042;5.178;2023-05-02T08:06:38;13.40;99.90
41838;DHT22;27511;52.042;5.178;2023-05-02T08:09:04;13.60;99.90
41838;DHT22;27511;52.042;5.178;2023-05-02T08:11:29;13.80;99.90
41838;DHT22;27511;52.042;5.178;2023-05-02T08:13:55;13.80;99.90
41838;DHT22;27511;52.042;5.178;2023-05-02T08:16:20;14.00;99.90
41838;DHT22;27511;52.042;5.178;2023-05-02T08:18:46;14.00;99.90
41838;DHT22;27511;52.042;5.178;2023-05-02T08:21:11;14.10;99.90
41838;DHT22;27511;52.042;5.178;2023-05-02T08:23:37;14.20;99.90
41838;DHT22;27511;52.042;5.178;2023-05-02T08:26:03;14.40;99.90
41838;DHT22;27511;52.042;5.178;2023-05-02T08:28:28;14.30;99.90
41838;DHT22;27511;52.042;5.178;2023-05-02T08:30:55;14.40;99.90
41838;DHT22;27511;52.042;5.178;2023-05-02T08:33:20;14.30;99.90
41838;DHT22;27511;52.042;5.178;2023-05-02T08:35:46;14.40;99.90
41838;DHT22;27511;52.042;5.178;2023-05-02T08:38:11;14.30;99.90
41838;DHT22;27511;52.042;5.178;2023-05-02T08:40:37;14.10;99.90
41838;DHT22;27511;52.042;5.178;2023-05-02T08:43:03;14.00;99.90
41838;DHT22;27511;52.042;5.178;2023-05-02T08:45:30;14.00;99.90
41838;DHT22;27511;52.042;5.178;2023-05-02T08:48:03;13.90;99.90
41838;DHT22;27511;52.042;5.178;2023-05-02T08:50:31;13.80;99.90
41838;DHT22;27511;52.042;5.178;2023-05-02T08:52:57;13.90;99.90
41838;DHT22;27511;52.042;5.178;2023-05-02T08:55:24;14.10;99.90
41838;DHT22;27511;52.042;5.178;2023-05-02T08:57:53;14.10;99.90
41838;DHT22;27511;52.042;5.178;2023-05-02T09:00:19;14.30;99.90
41838;DHT22;27511;52.042;5.178;2023-05-02T09:05:22;14.40;99.90
41838;DHT22;27511;52.042;5.178;2023-05-02T09:07:49;14.40;99.90
41838;DHT22;27511;52.042;5.178;2023-05-02T09:10:15;14.50;99.90
41838;DHT22;27511;52.042;5.178;2023-05-02T09:12:40;14.60;99.90
41838;DHT22;27511;52.042;5.178;2023-05-02T09:15:13;14.60;99.90
41838;DHT22;27511;52.042;5.178;2023-05-02T09:17:40;14.50;99.90
41838;DHT22;27511;52.042;5.178;2023-05-02T09:20:05;14.40;99.90
41838;DHT22;27511;52.042;5.178;2023-05-02T09:22:31;14.60;99.90
41838;DHT22;27511;52.042;5.178;2023-05-02T09:24:57;14.60;99.90
41838;DHT22;27511;52.042;5.178;2023-05-02T09:27:22;14.70;99.90
41838;DHT22;27511;52.042;5.178;2023-05-02T09:29:48;14.60;99.90
41838;DHT22;27511;52.042;5.178;2023-05-02T09:32:13;14.80;99.90
41838;DHT22;27511;52.042;5.178;2023-05-02T09:34:39;14.90;99.90
41838;DHT22;27511;52.042;5.178;2023-05-02T09:37:04;14.80;99.90
41838;DHT22;27511;52.042;5.178;2023-05-02T09:39:30;14.50;99.90
41838;DHT22;27511;52.042;5.178;2023-05-02T09:41:56;14.50;99.90
41838;DHT22;27511;52.042;5.178;2023-05-02T09:44:23;14.50;99.90
41838;DHT22;27511;52.042;5.178;2023-05-02T09:46:49;14.60;99.90
41838;DHT22;27511;52.042;5.178;2023-05-02T09:49:15;14.70;99.90
41838;DHT22;27511;52.042;5.178;2023-05-02T09:51:43;14.70;99.90
41838;DHT22;27511;52.042;5.178;2023-05-02T09:54:09;14.70;99.90
41838;DHT22;27511;52.042;5.178;2023-05-02T09:56:54;14.70;99.90
41838;DHT22;27511;52.042;5.178;2023-05-02T09:59:21;14.70;99.90
41838;DHT22;27511;52.042;5.178;2023-05-02T10:01:53;14.70;99.90
41838;DHT22;27511;52.042;5.178;2023-05-02T10:04:19;14.70;99.90
41838;DHT22;27511;52.042;5.178;2023-05-02T10:06:45;14.70;99.90
41838;DHT22;27511;52.042;5.178;2023-05-02T10:09:11;14.70;99.90
41838;DHT22;27511;52.042;5.178;2023-05-02T10:11:38;14.80;99.90
41838;DHT22;27511;52.042;5.178;2023-05-02T10:14:09;14.90;99.90
41838;DHT22;27511;52.042;5.178;2023-05-02T10:16:36;14.90;99.90
41838;DHT22;27511;52.042;5.178;2023-05-02T10:19:06;14.80;99.90
41838;DHT22;27511;52.042;5.178;2023-05-02T10:21:33;14.70;99.90
41838;DHT22;27511;52.042;5.178;2023-05-02T10:23:59;14.60;99.90
41838;DHT22;27511;52.042;5.178;2023-05-02T10:26:26;14.70;99.90
41838;DHT22;27511;52.042;5.178;2023-05-02T10:28:52;14.90;99.90
41838;DHT22;27511;52.042;5.178;2023-05-02T10:31:18;15.10;99.90
41838;DHT22;27511;52.042;5.178;2023-05-02T10:33:43;15.30;99.90
41838;DHT22;27511;52.042;5.178;2023-05-02T10:36:11;15.40;99.90
41838;DHT22;27511;52.042;5.178;2023-05-02T10:38:39;15.40;99.90
41838;DHT22;27511;52.042;5.178;2023-05-02T10:41:14;15.10;99.90
41838;DHT22;27511;52.042;5.178;2023-05-02T10:43:40;15.00;99.90
41838;DHT22;27511;52.042;5.178;2023-05-02T10:46:28;15.20;99.90
41838;DHT22;27511;52.042;5.178;2023-05-02T10:49:04;15.10;99.90
41838;DHT22;27511;52.042;5.178;2023-05-02T10:51:30;14.90;99.90
41838;DHT22;27511;52.042;5.178;2023-05-02T10:54:17;14.70;99.90
41838;DHT22;27511;52.042;5.178;2023-05-02T10:59:28;14.70;99.90
41838;DHT22;27511;52.042;5.178;2023-05-02T11:01:53;14.90;99.90
41838;DHT22;27511;52.042;5.178;2023-05-02T11:04:19;14.90;99.90
41838;DHT22;27511;52.042;5.178;2023-05-02T11:11:48;15.10;99.90
41838;DHT22;27511;52.042;5.178;2023-05-02T11:19:24;14.50;99.90
41838;DHT22;27511;52.042;5.178;2023-05-02T11:21:49;14.60;99.90
41838;DHT22;27511;52.042;5.178;2023-05-02T11:29:55;15.30;99.90
41838;DHT22;27511;52.042;5.178;2023-05-02T11:32:21;15.10;99.90
41838;DHT22;27511;52.042;5.178;2023-05-02T11:34:47;15.10;99.90
41838;DHT22;27511;52.042;5.178;2023-05-02T11:37:16;15.00;99.90
41838;DHT22;27511;52.042;5.178;2023-05-02T11:39:42;15.00;99.90
41838;DHT22;27511;52.042;5.178;2023-05-02T11:42:07;15.10;99.90
41838;DHT22;27511;52.042;5.178;2023-05-02T11:44:33;15.50;99.90
41838;DHT22;27511;52.042;5.178;2023-05-02T11:47:00;15.40;99.90
41838;DHT22;27511;52.042;5.178;2023-05-02T11:49:26;15.40;99.90
41838;DHT22;27511;52.042;5.178;2023-05-02T11:51:52;15.30;99.90
41838;DHT22;27511;52.042;5.178;2023-05-02T11:54:18;15.50;99.90
41838;DHT22;27511;52.042;5.178;2023-05-02T11:56:44;15.50;99.90
41838;DHT22;27511;52.042;5.178;2023-05-02T11:59:09;15.70;99.90
41838;DHT22;27511;52.042;5.178;2023-05-02T12:01:35;15.70;99.90
41838;DHT22;27511;52.042;5.178;2023-05-02T12:04:01;15.70;99.90
41838;DHT22;27511;52.042;5.178;2023-05-02T12:06:27;15.70;99.90
41838;DHT22;27511;52.042;5.178;2023-05-02T12:08:53;15.50;99.90
41838;DHT22;27511;52.042;5.178;2023-05-02T12:11:29;15.40;99.90
41838;DHT22;27511;52.042;5.178;2023-05-02T12:13:55;15.70;99.90
41838;DHT22;27511;52.042;5.178;2023-05-02T12:16:20;15.80;99.90
41838;DHT22;27511;52.042;5.178;2023-05-02T12:18:46;16.00;99.90
41838;DHT22;27511;52.042;5.178;2023-05-02T12:21:12;16.20;99.90
41838;DHT22;27511;52.042;5.178;2023-05-02T12:23:38;16.30;99.90
41838;DHT22;27511;52.042;5.178;2023-05-02T12:26:23;16.20;99.90
41838;DHT22;27511;52.042;5.178;2023-05-02T12:28:50;16.30;99.90
41838;DHT22;27511;52.042;5.178;2023-05-02T12:31:15;16.40;99.90
41838;DHT22;27511;52.042;5.178;2023-05-02T12:33:41;16.70;99.90
41838;DHT22;27511;52.042;5.178;2023-05-02T12:36:07;16.90;99.90
41838;DHT22;27511;52.042;5.178;2023-05-02T12:38:34;16.70;99.90
41838;DHT22;27511;52.042;5.178;2023-05-02T12:40:59;16.50;99.90
41838;DHT22;27511;52.042;5.178;2023-05-02T12:43:25;16.40;99.90
41838;DHT22;27511;52.042;5.178;2023-05-02T12:45:57;16.60;99.90
41838;DHT22;27511;52.042;5.178;2023-05-02T12:48:33;16.80;99.90
41838;DHT22;27511;52.042;5.178;2023-05-02T12:50:58;17.10;99.90
41838;DHT22;27511;52.042;5.178;2023-05-02T12:53:36;16.70;99.90
41838;DHT22;27511;52.042;5.178;2023-05-02T12:56:02;16.60;99.90
41838;DHT22;27511;52.042;5.178;2023-05-02T12:58:28;16.80;99.90
41838;DHT22;27511;52.042;5.178;2023-05-02T13:00:53;17.00;99.90
41838;DHT22;27511;52.042;5.178;2023-05-02T13:03:19;17.10;99.90
41838;DHT22;27511;52.042;5.178;2023-05-02T13:05:45;17.30;99.90
41838;DHT22;27511;52.042;5.178;2023-05-02T13:08:11;17.60;99.90
41838;DHT22;27511;52.042;5.178;2023-05-02T13:10:36;17.80;99.90
41838;DHT22;27511;52.042;5.178;2023-05-02T13:13:02;18.00;99.90
41838;DHT22;27511;52.042;5.178;2023-05-02T13:15:27;17.90;99.90
41838;DHT22;27511;52.042;5.178;2023-05-02T13:17:53;18.20;99.90
41838;DHT22;27511;52.042;5.178;2023-05-02T13:20:19;18.10;99.90
41838;DHT22;27511;52.042;5.178;2023-05-02T13:22:46;18.30;99.90
41838;DHT22;27511;52.042;5.178;2023-05-02T13:25:11;18.30;99.90
41838;DHT22;27511;52.042;5.178;2023-05-02T13:27:37;18.50;99.90
41838;DHT22;27511;52.042;5.178;2023-05-02T13:30:02;18.50;99.90
41838;DHT22;27511;52.042;5.178;2023-05-02T13:32:28;18.50;99.90
41838;DHT22;27511;52.042;5.178;2023-05-02T13:34:54;18.60;99.90
41838;DHT22;27511;52.042;5.178;2023-05-02T13:37:19;18.70;99.90
41838;DHT22;27511;52.042;5.178;2023-05-02T13:39:45;18.80;99.90
41838;DHT22;27511;52.042;5.178;2023-05-02T13:42:10;19.10;99.90
41838;DHT22;27511;52.042;5.178;2023-05-02T13:44:36;19.20;99.90
41838;DHT22;27511;52.042;5.178;2023-05-02T13:47:01;19.40;99.90
41838;DHT22;27511;52.042;5.178;2023-05-02T13:49:28;19.30;99.90
41838;DHT22;27511;52.042;5.178;2023-05-02T13:51:54;19.30;99.90
41838;DHT22;27511;52.042;5.178;2023-05-02T13:54:19;18.90;99.90
41838;DHT22;27511;52.042;5.178;2023-05-02T13:56:45;18.90;99.90
41838;DHT22;27511;52.042;5.178;2023-05-02T13:59:10;18.90;99.90
41838;DHT22;27511;52.042;5.178;2023-05-02T14:01:36;19.10;99.90
41838;DHT22;27511;52.042;5.178;2023-05-02T14:04:05;19.50;99.90
41838;DHT22;27511;52.042;5.178;2023-05-02T14:06:36;19.60;99.90
41838;DHT22;27511;52.042;5.178;2023-05-02T14:09:01;19.70;99.90
41838;DHT22;27511;52.042;5.178;2023-05-02T14:11:27;19.80;99.90
41838;DHT22;27511;52.042;5.178;2023-05-02T14:13:52;19.80;99.90
41838;DHT22;27511;52.042;5.178;2023-05-02T14:16:19;19.70;99.90
41838;DHT22;27511;52.042;5.178;2023-05-02T14:18:44;19.80;99.90
41838;DHT22;27511;52.042;5.178;2023-05-02T14:21:10;20.10;99.90
41838;DHT22;27511;52.042;5.178;2023-05-02T14:23:36;20.20;99.90
41838;DHT22;27511;52.042;5.178;2023-05-02T14:26:01;20.40;99.90
41838;DHT22;27511;52.042;5.178;2023-05-02T14:28:28;20.30;99.90
41838;DHT22;27511;52.042;5.178;2023-05-02T14:30:53;20.60;99.90
41838;DHT22;27511;52.042;5.178;2023-05-02T14:33:19;20.90;99.90
41838;DHT22;27511;52.042;5.178;2023-05-02T14:35:44;21.00;99.90
41838;DHT22;27511;52.042;5.178;2023-05-02T14:38:10;20.80;99.90
41838;DHT22;27511;52.042;5.178;2023-05-02T14:40:35;20.60;99.90
41838;DHT22;27511;52.042;5.178;2023-05-02T14:43:02;20.30;99.90
41838;DHT22;27511;52.042;5.178;2023-05-02T14:45:27;20.30;99.90
41838;DHT22;27511;52.042;5.178;2023-05-02T14:47:53;20.20;99.90
41838;DHT22;27511;52.042;5.178;2023-05-02T14:50:18;19.70;99.90
41838;DHT22;27511;52.042;5.178;2023-05-02T14:52:44;19.40;99.90
41838;DHT22;27511;52.042;5.178;2023-05-02T14:55:10;19.60;99.90
41838;DHT22;27511;52.042;5.178;2023-05-02T14:57:36;19.50;99.90
41838;DHT22;27511;52.042;5.178;2023-05-02T15:00:02;19.50;99.90
41838;DHT22;27511;52.042;5.178;2023-05-02T15:02:28;19.60;99.90
41838;DHT22;27511;52.042;5.178;2023-05-02T15:04:53;20.00;99.90
41838;DHT22;27511;52.042;5.178;2023-05-02T15:07:19;20.40;99.90
41838;DHT22;27511;52.042;5.178;2023-05-02T15:09:45;20.30;99.90
41838;DHT22;27511;52.042;5.178;2023-05-02T15:12:10;20.60;99.90
41838;DHT22;27511;52.042;5.178;2023-05-02T15:14:35;20.80;99.90
41838;DHT22;27511;52.042;5.178;2023-05-02T15:17:01;20.80;99.90
41838;DHT22;27511;52.042;5.178;2023-05-02T15:19:26;21.60;99.90
41838;DHT22;27511;52.042;5.178;2023-05-02T15:21:52;22.10;99.90
41838;DHT22;27511;52.042;5.178;2023-05-02T15:24:18;22.60;99.90
41838;DHT22;27511;52.042;5.178;2023-05-02T15:26:44;22.50;99.90
41838;DHT22;27511;52.042;5.178;2023-05-02T15:29:09;22.50;99.90
41838;DHT22;27511;52.042;5.178;2023-05-02T15:31:35;21.80;99.90
41838;DHT22;27511;52.042;5.178;2023-05-02T15:34:01;22.30;99.90
41838;DHT22;27511;52.042;5.178;2023-05-02T15:36:26;23.50;99.90
41838;DHT22;27511;52.042;5.178;2023-05-02T15:38:55;25.10;99.90
41838;DHT22;27511;52.042;5.178;2023-05-02T15:41:21;26.20;99.90
41838;DHT22;27511;52.042;5.178;2023-05-02T15:43:48;27.00;99.90
41838;DHT22;27511;52.042;5.178;2023-05-02T15:46:14;28.20;99.90
41838;DHT22;27511;52.042;5.178;2023-05-02T15:48:40;28.60;99.90
41838;DHT22;27511;52.042;5.178;2023-05-02T15:51:05;28.80;99.90
41838;DHT22;27511;52.042;5.178;2023-05-02T15:53:33;29.00;99.90
41838;DHT22;27511;52.042;5.178;2023-05-02T15:55:59;27.80;99.90
41838;DHT22;27511;52.042;5.178;2023-05-02T15:58:24;27.90;99.90
41838;DHT22;27511;52.042;5.178;2023-05-02T16:00:50;28.10;99.90
41838;DHT22;27511;52.042;5.178;2023-05-02T16:03:16;28.60;99.90
41838;DHT22;27511;52.042;5.178;2023-05-02T16:05:42;28.10;99.90
41838;DHT22;27511;52.042;5.178;2023-05-02T16:08:07;28.00;99.90